Myrtle Beach International Airport
KMYR : now visible

Airfield :











YOU CAN JOIN US ON...

 
LOGIN :

Register | Disclaimer

   EN    FR    IT 

 









Legend :    VFR   Marginal VFR   IFR   Intensive IFR   Very Intensive IFR
Visi :
Ceiling :
>= 8 km
>= 3000ft
5 to 8 km
1000 to 3000 ft
1500m to 5 km
500 to 1000 ft
800 to 1500m
200 to 500 ft
< 800m
< 200 ft
Symbols :   Thunderstorms  Fog  Heavy snow  Heavy precipitations  Wind > 20 kt






- Airport Elevation : 25 ft
- IATA code : MYR


KMYR - Myrtle Beach International

CURRENT METAR :
  • 130356Z AUTO 02006KT 10SM BKN028 BKN032 07/01 A3041 RMK AO2 SLP299 T00670011

EXPIRED METARs :
  • 130256Z 02007KT 10SM OVC020 07/01 A3042 RMK AO2 SLP302 T00720006 58014
  • 130156Z 02006KT 10SM OVC022 08/01 A3044 RMK AO2 SLP306 T00780006

TAF KMYR
Valid from the 13 at 00:00 until the 14 at 00:00 UTC


130000Z 1300/1324 04010KT P6SM SCT025
TEMPO 1300/1304 BKN025
FM130400 03011KT P6SM OVC015
FM130800 03007KT P6SM OVC008
FM131300 03009KT 5SM -RA OVC005
FM131800 04007KT 3SM RA OVC004



MET'MAP, your aeronautical weather chart ! - Copyright ORBIFLY December 2007 - Disclaimer

ORBIFLY MET'MAP TEAM :

Programming & Development : Alexandra Zaïnal
Concept & original design : Baudouin d'Aumeries
Assistance for programming : Marc-Olivier Méhu
Technical & hardware support : Manuel Goepfert

Contact : metmap@orbifly.com




SOURCES & CREDITS :

   NOAA       Earth
Advisory